Time;durP1;ratioP1;P1;durP2;ratioP2;P2;SDS_P1;SDS_P2;PMS_P1;PMS_P2;Temp;Humidity;BMP_temperature;BMP_pressure;BME280_temperature;BME280_humidity;BME280_pressure;Samples;Min_cycle;Max_cycle;Signal;HPM_P1;HPM_P2
2022/03/03 00:02:09;;;;;;;11.37;7.33;;;;;;;19.14;46.49;100648.44;5060114;22;20240;-69
2022/03/03 00:04:35;;;;;;;13.43;6.50;;;;;;;19.00;45.61;100651.81;5040864;22;21437;-62
2022/03/03 00:07:00;;;;;;;12.00;6.80;;;;;;;18.95;46.06;100649.25;5044382;28;20195;-63
2022/03/03 00:09:26;;;;;;;13.70;6.90;;;;;;;18.93;46.04;100650.84;5034606;28;20187;-63
2022/03/03 00:11:51;;;;;;;10.17;6.03;;;;;;;18.88;46.73;100654.84;5045858;28;20168;-63
2022/03/03 00:14:17;;;;;;;11.53;6.70;;;;;;;18.93;46.59;100648.81;5048068;28;20179;-63
2022/03/03 00:16:43;;;;;;;11.80;6.93;;;;;;;18.88;46.94;100651.13;5048431;28;20187;-60
2022/03/03 00:19:08;;;;;;;13.53;6.23;;;;;;;18.88;47.38;100642.56;5048729;28;20605;-60
2022/03/03 00:21:34;;;;;;;10.97;7.10;;;;;;;18.84;47.43;100642.47;5040525;28;20185;-60
2022/03/03 00:23:59;;;;;;;11.53;6.40;;;;;;;18.86;47.50;100648.66;5032447;28;20627;-60
2022/03/03 00:26:25;;;;;;;10.07;6.30;;;;;;;18.84;47.38;100642.47;5028545;28;20180;-61
2022/03/03 00:28:50;;;;;;;13.27;7.03;;;;;;;18.82;47.91;100641.19;5027299;28;20180;-60
2022/03/03 00:31:16;;;;;;;10.70;5.93;;;;;;;18.82;48.04;100650.59;5027692;28;20192;-60
2022/03/03 00:33:41;;;;;;;9.87;6.60;;;;;;;18.80;48.33;100649.31;5027980;28;20180;-60
2022/03/03 00:36:07;;;;;;;8.20;5.30;;;;;;;18.83;48.43;100643.69;5042897;28;20514;-60
2022/03/03 00:38:32;;;;;;;8.83;5.93;;;;;;;18.79;48.34;100645.63;5040453;28;20242;-62
2022/03/03 00:40:57;;;;;;;12.80;6.87;;;;;;;18.79;48.64;100645.63;5027990;28;20176;-62
2022/03/03 00:43:23;;;;;;;12.50;6.10;;;;;;;18.78;48.65;100638.28;5028119;28;20172;-61
2022/03/03 00:45:48;;;;;;;18.60;6.00;;;;;;;18.77;48.82;100639.44;5036172;28;20190;-61
2022/03/03 00:48:14;;;;;;;13.87;5.70;;;;;;;18.75;48.84;100636.16;5048311;28;20179;-61
2022/03/03 00:50:39;;;;;;;9.03;5.93;;;;;;;18.77;49.06;100645.16;5048004;28;20229;-62
2022/03/03 00:53:05;;;;;;;9.90;5.87;;;;;;;18.75;49.06;100638.16;5048238;28;20539;-61
2022/03/03 00:55:30;;;;;;;9.50;5.73;;;;;;;18.75;48.86;100638.16;5048220;28;20650;-62
2022/03/03 00:57:55;;;;;;;7.37;5.30;;;;;;;18.77;49.24;100630.88;5048216;28;20164;-61
2022/03/03 01:00:21;;;;;;;11.63;6.07;;;;;;;18.77;48.95;100632.91;5047058;28;20184;-61
2022/03/03 01:02:47;;;;;;;10.67;5.87;;;;;;;18.74;49.36;100636.50;5041833;28;20180;-61
2022/03/03 01:05:12;;;;;;;11.77;6.37;;;;;;;18.74;49.02;100640.22;5039177;28;20311;-61
2022/03/03 01:07:38;;;;;;;11.23;5.60;;;;;;;18.76;49.29;100643.50;5051920;28;20179;-61
2022/03/03 01:10:04;;;;;;;9.60;5.90;;;;;;;18.77;49.29;100636.59;5031887;28;20168;-62
2022/03/03 01:12:30;;;;;;;10.27;5.57;;;;;;;18.79;49.20;100641.94;5036953;28;20210;-62
2022/03/03 01:14:55;;;;;;;9.73;5.87;;;;;;;18.75;49.28;100644.72;5051613;28;20418;-61
2022/03/03 01:17:21;;;;;;;11.23;5.50;;;;;;;18.76;49.23;100642.72;5051509;28;20225;-61
2022/03/03 01:19:46;;;;;;;9.03;5.60;;;;;;;18.75;49.29;100644.72;5049856;28;20204;-62
2022/03/03 01:22:12;;;;;;;10.87;5.97;;;;;;;18.74;49.59;100637.34;5050318;28;20180;-61
2022/03/03 01:24:37;;;;;;;8.63;5.00;;;;;;;18.73;49.73;100641.41;5051941;28;20175;-61
2022/03/03 01:27:03;;;;;;;9.53;5.40;;;;;;;18.76;49.63;100637.00;5052005;28;20534;-61
2022/03/03 01:29:28;;;;;;;10.40;5.40;;;;;;;18.76;49.49;100642.72;5050927;28;20278;-61
2022/03/03 01:31:53;;;;;;;8.30;5.23;;;;;;;18.77;49.37;100638.63;5051421;28;20537;-61
2022/03/03 01:34:19;;;;;;;9.37;5.60;;;;;;;18.75;49.71;100638.16;5043329;28;20211;-61
2022/03/03 01:36:44;;;;;;;9.67;5.40;;;;;;;18.75;49.89;100633.28;5051303;28;20179;-61
2022/03/03 01:39:10;;;;;;;7.20;5.77;;;;;;;18.76;49.74;100634.13;5050959;28;20203;-61
2022/03/03 01:41:35;;;;;;;8.07;5.40;;;;;;;18.75;49.50;100633.28;5051240;28;20196;-61
2022/03/03 01:44:01;;;;;;;9.33;6.03;;;;;;;18.75;49.77;100629.59;5049913;28;20172;-61
2022/03/03 01:46:26;;;;;;;9.10;5.00;;;;;;;18.72;50.10;100633.22;5051262;28;20179;-61
2022/03/03 01:48:52;;;;;;;8.70;5.33;;;;;;;18.73;49.97;100617.69;5050045;28;20225;-61
2022/03/03 01:51:17;;;;;;;8.30;5.57;;;;;;;18.72;49.96;100616.84;5048960;28;20205;-61
2022/03/03 01:53:43;;;;;;;8.00;5.17;;;;;;;18.73;49.77;100612.81;5050369;28;20183;-61
2022/03/03 01:56:08;;;;;;;9.53;5.50;;;;;;;18.71;50.04;100609.50;5051367;28;20175;-61
2022/03/03 01:58:34;;;;;;;7.63;5.00;;;;;;;18.70;50.23;100607.84;5050598;28;20206;-61
2022/03/03 02:00:59;;;;;;;8.73;5.33;;;;;;;18.75;49.94;100598.97;5051187;28;20175;-61
2022/03/03 02:03:25;;;;;;;7.60;4.83;;;;;;;18.70;50.11;100602.13;5050196;28;20188;-61
2022/03/03 02:05:50;;;;;;;6.90;4.80;;;;;;;18.72;49.76;100598.88;5048324;28;20227;-61
2022/03/03 02:08:15;;;;;;;7.87;5.23;;;;;;;18.70;49.81;100599.25;5044025;28;20543;-61
2022/03/03 02:10:41;;;;;;;7.70;4.90;;;;;;;18.76;49.83;100602.66;5033556;28;20527;-61
2022/03/03 02:13:07;;;;;;;7.03;5.10;;;;;;;18.68;50.38;100613.13;5039711;28;20625;-61
2022/03/03 02:15:32;;;;;;;9.27;5.23;;;;;;;18.68;50.20;100603.69;5050680;28;20664;-61
2022/03/03 02:17:58;;;;;;;6.90;5.10;;;;;;;18.66;50.49;100606.13;5050854;28;20183;-62
2022/03/03 02:20:24;;;;;;;8.00;5.00;;;;;;;18.67;50.31;100596.31;5050293;28;20188;-61
2022/03/03 02:22:50;;;;;;;7.70;5.23;;;;;;;18.65;50.16;100590.97;5050520;28;20176;-61
2022/03/03 02:25:16;;;;;;;10.00;4.83;;;;;;;18.66;50.47;100589.75;5050556;28;20538;-61
2022/03/03 02:27:42;;;;;;;9.50;5.57;;;;;;;18.67;50.30;100596.31;5050853;28;20948;-61
2022/03/03 02:30:08;;;;;;;8.20;5.10;;;;;;;18.69;50.12;100591.03;5050197;28;20483;-61
2022/03/03 02:32:34;;;;;;;8.53;5.03;;;;;;;18.68;50.10;100586.53;5065368;28;20219;-61
2022/03/03 02:34:59;;;;;;;7.23;5.20;;;;;;;18.66;50.35;100586.91;5049714;28;20568;-62
2022/03/03 02:37:31;;;;;;;7.90;4.90;;;;;;;18.67;50.23;100587.75;5049838;28;20171;-61
2022/03/03 02:39:56;;;;;;;8.27;5.20;;;;;;;18.67;49.86;100591.41;5049942;28;20219;-61
2022/03/03 02:42:22;;;;;;;8.33;5.10;;;;;;;18.66;50.11;100586.91;5049385;28;20998;-61
2022/03/03 02:44:47;;;;;;;6.63;4.90;;;;;;;18.67;50.38;100590.59;5050017;28;20226;-61
2022/03/03 02:47:12;;;;;;;7.80;5.27;;;;;;;18.67;50.46;100594.28;5050357;28;20171;-61
2022/03/03 02:49:38;;;;;;;9.40;5.20;;;;;;;18.64;50.45;100603.63;5050093;28;20658;-62
2022/03/03 02:52:04;;;;;;;7.27;4.70;;;;;;;18.62;50.40;100593.75;5049698;28;20187;-61
2022/03/03 02:54:29;;;;;;;7.67;5.07;;;;;;;18.65;50.14;100593.84;5050034;28;20668;-61
2022/03/03 02:59:38;;;;;;;7.20;4.83;;;;;;;18.61;50.67;100587.19;5049095;28;20194;-61
2022/03/03 03:02:04;;;;;;;7.17;4.93;;;;;;;18.65;50.58;100588.13;5036993;28;20431;-61
2022/03/03 03:04:29;;;;;;;6.77;4.60;;;;;;;18.63;50.53;100596.25;5030374;28;20254;-61
2022/03/03 03:07:16;;;;;;;8.10;4.80;;;;;;;18.63;50.34;100601.97;5049332;28;20208;-61
2022/03/03 03:09:42;;;;;;;8.20;5.03;;;;;;;18.62;50.73;100599.47;5035295;28;20211;-61
2022/03/03 03:12:08;;;;;;;8.50;4.53;;;;;;;18.63;50.26;100596.25;5049609;28;20429;-61
2022/03/03 03:14:33;;;;;;;7.77;4.73;;;;;;;18.60;50.62;100597.00;5049558;28;20180;-62
2022/03/03 03:16:59;;;;;;;7.40;5.20;;;;;;;18.61;50.65;100584.34;5049516;28;20525;-61
2022/03/03 03:19:24;;;;;;;8.60;5.40;;;;;;;18.62;50.60;100580.28;5049033;28;20191;-61
2022/03/03 03:21:50;;;;;;;10.13;4.67;;;;;;;18.58;50.57;100576.53;5049187;28;20635;-61
2022/03/03 03:24:15;;;;;;;9.07;5.60;;;;;;;18.60;50.54;100574.13;5048946;28;20809;-61
2022/03/03 03:26:41;;;;;;;8.20;4.80;;;;;;;18.60;50.42;100576.97;5049275;28;20182;-61
2022/03/03 03:29:06;;;;;;;6.73;4.70;;;;;;;18.63;50.19;100567.66;5031185;28;20168;-61
2022/03/03 03:31:32;;;;;;;7.60;4.77;;;;;;;18.58;50.50;100565.09;5049363;28;20171;-61
2022/03/03 03:33:57;;;;;;;6.17;4.60;;;;;;;18.62;50.22;100559.44;5049304;28;20180;-61
2022/03/03 03:36:23;;;;;;;8.20;4.50;;;;;;;18.59;50.62;100561.03;5049031;28;20651;-62
2022/03/03 03:38:48;;;;;;;7.10;5.07;;;;;;;18.59;50.76;100563.88;5047436;28;20211;-61
2022/03/03 03:41:13;;;;;;;7.20;4.13;;;;;;;18.61;50.40;100567.19;5037263;28;20180;-61
2022/03/03 03:43:39;;;;;;;6.87;4.80;;;;;;;18.57;50.56;100563.41;5034392;28;20183;-61
2022/03/03 03:46:04;;;;;;;6.80;4.33;;;;;;;18.57;50.69;100557.69;5029183;28;20181;-61
2022/03/03 03:48:30;;;;;;;6.97;4.87;;;;;;;18.57;50.55;100563.41;5035032;28;20198;-61
2022/03/03 03:50:55;;;;;;;6.20;4.20;;;;;;;18.59;50.34;100569.59;5048458;28;20175;-61
2022/03/03 03:53:21;;;;;;;9.47;5.50;;;;;;;18.56;50.64;100566.66;5048614;28;20230;-61
2022/03/03 03:55:46;;;;;;;6.97;4.60;;;;;;;18.55;50.62;100565.84;5048802;28;20172;-61
2022/03/03 03:58:12;;;;;;;7.67;4.77;;;;;;;18.57;50.44;100569.13;5029841;28;20210;-61
2022/03/03 04:00:37;;;;;;;9.03;4.87;;;;;;;18.54;50.73;100569.91;5048068;28;20202;-61
2022/03/03 04:03:03;;;;;;;6.47;4.33;;;;;;;18.54;50.39;100558.47;5048434;28;20211;-61
2022/03/03 04:05:28;;;;;;;7.70;4.60;;;;;;;18.54;50.35;100552.75;5048294;28;20215;-61
2022/03/03 04:07:54;;;;;;;7.90;4.73;;;;;;;18.59;50.56;100555.31;5046466;28;20175;-61
2022/03/03 04:10:20;;;;;;;5.90;4.43;;;;;;;18.61;50.30;100561.47;5028466;28;20187;-61
2022/03/03 04:12:45;;;;;;;8.10;4.63;;;;;;;18.56;50.52;100550.31;5035913;28;20175;-61
2022/03/03 04:15:11;;;;;;;6.03;4.20;;;;;;;18.57;50.20;100540.53;5045226;28;20426;-61
2022/03/03 04:17:36;;;;;;;7.63;4.90;;;;;;;18.56;50.63;100536.03;5029163;28;20184;-61
2022/03/03 04:20:03;;;;;;;5.50;4.00;;;;;;;18.57;50.32;100534.81;5047818;28;20533;-61
2022/03/03 04:22:28;;;;;;;8.23;4.73;;;;;;;18.56;50.86;100540.94;5048466;28;20202;-61
2022/03/03 04:24:54;;;;;;;6.47;4.80;;;;;;;18.55;50.59;100545.81;5048065;28;20422;-61
2022/03/03 04:27:19;;;;;;;6.23;4.77;;;;;;;18.56;50.37;100555.22;5048483;28;20194;-61
2022/03/03 04:29:45;;;;;;;9.47;4.87;;;;;;;18.57;50.52;100551.97;5048127;28;20160;-61
2022/03/03 04:32:11;;;;;;;8.73;4.90;;;;;;;18.57;50.47;100548.31;5048906;28;20202;-61
2022/03/03 04:34:36;;;;;;;7.00;4.20;;;;;;;18.55;50.63;100548.69;5048238;28;20167;-61
2022/03/03 04:37:02;;;;;;;7.10;4.60;;;;;;;18.57;50.70;100551.97;5049401;28;20617;-61
2022/03/03 04:39:27;;;;;;;7.17;4.63;;;;;;;18.57;50.31;100549.13;5051823;28;20191;-61
2022/03/03 04:41:53;;;;;;;6.60;4.40;;;;;;;18.57;50.37;100549.13;5052550;28;20241;-61
2022/03/03 04:44:18;;;;;;;6.70;4.53;;;;;;;18.55;50.96;100547.84;5046525;28;20669;-61
2022/03/03 04:46:44;;;;;;;6.87;4.50;;;;;;;18.53;50.69;100545.38;5045795;28;20218;-61
2022/03/03 04:49:09;;;;;;;6.10;4.40;;;;;;;18.56;50.37;100541.75;5050963;28;20266;-61
2022/03/03 04:51:39;;;;;;;6.30;4.50;;;;;;;18.59;50.52;100541.00;5051538;28;20186;-61
2022/03/03 04:54:05;;;;;;;6.70;4.27;;;;;;;18.55;50.69;100542.97;5052179;28;20199;-61
2022/03/03 04:56:30;;;;;;;6.10;3.80;;;;;;;18.59;50.52;100538.16;5052194;28;20445;-61
2022/03/03 04:58:55;;;;;;;5.93;4.53;;;;;;;18.58;50.34;100536.50;5048572;28;20782;-61
2022/03/03 05:01:21;;;;;;;6.43;3.70;;;;;;;18.57;50.34;100531.97;5032071;28;20176;-61
2022/03/03 05:03:46;;;;;;;5.87;4.00;;;;;;;18.57;50.50;100534.00;5030912;28;20686;-61
2022/03/03 05:06:12;;;;;;;7.93;4.60;;;;;;;18.54;50.52;100534.75;5046988;28;20231;-61
2022/03/03 05:08:37;;;;;;;6.30;4.47;;;;;;;18.57;50.45;100529.09;5050802;28;20176;-61
2022/03/03 05:11:03;;;;;;;6.47;4.83;;;;;;;18.54;50.34;100531.88;5051649;28;20179;-61
2022/03/03 05:13:29;;;;;;;6.37;4.47;;;;;;;18.53;50.44;100528.22;5050620;28;20262;-61
2022/03/03 05:15:54;;;;;;;6.63;4.17;;;;;;;18.57;50.29;100522.56;5051632;28;20175;-61
2022/03/03 05:18:20;;;;;;;6.57;4.90;;;;;;;18.52;50.34;100529.41;5051926;28;20199;-61
2022/03/03 05:20:45;;;;;;;6.40;4.23;;;;;;;18.59;50.56;100532.44;5051011;28;20199;-61
2022/03/03 05:23:10;;;;;;;7.10;4.90;;;;;;;18.59;50.35;100523.00;5051559;28;20194;-61
2022/03/03 05:25:36;;;;;;;6.03;4.20;;;;;;;18.54;50.42;100532.72;5051892;28;20568;-61
2022/03/03 05:28:01;;;;;;;5.53;4.30;;;;;;;18.54;50.29;100523.31;5051690;28;20172;-61
2022/03/03 05:30:27;;;;;;;6.63;4.20;;;;;;;18.53;50.40;100528.22;5051303;28;20182;-61
2022/03/03 05:32:52;;;;;;;6.33;4.33;;;;;;;18.56;50.35;100521.72;5051480;28;20175;-61
2022/03/03 05:35:18;;;;;;;6.60;4.40;;;;;;;18.52;50.40;100515.09;5047421;28;20650;-61
2022/03/03 05:37:45;;;;;;;6.77;4.10;;;;;;;18.54;50.66;100515.56;5051471;28;20183;-61
2022/03/03 05:40:11;;;;;;;6.27;4.33;;;;;;;18.51;50.70;100519.16;5030378;28;20603;-61
2022/03/03 05:42:36;;;;;;;7.30;4.30;;;;;;;18.58;50.52;100519.34;5050842;28;20426;-62
2022/03/03 05:45:02;;;;;;;5.07;3.80;;;;;;;18.58;50.45;100525.06;5049784;28;20225;-61
2022/03/03 05:47:28;;;;;;;6.87;4.30;;;;;;;18.54;50.33;100521.28;5050191;28;20241;-61
2022/03/03 05:49:54;;;;;;;6.57;4.40;;;;;;;18.55;50.45;100520.09;5048626;28;20195;-61
2022/03/03 05:52:19;;;;;;;5.93;4.30;;;;;;;18.58;50.12;100519.34;5033000;28;20426;-61
2022/03/03 05:54:45;;;;;;;6.60;4.67;;;;;;;18.60;50.25;100516.09;5051267;28;20164;-61
2022/03/03 05:57:15;;;;;;;8.40;4.50;;;;;;;18.54;50.54;100521.28;5051447;28;20226;-61
2022/03/03 05:59:41;;;;;;;4.80;3.80;;;;;;;18.53;50.64;100519.66;5050937;28;20283;-61
2022/03/03 06:02:08;;;;;;;7.50;4.33;;;;;;;18.56;50.25;100524.59;5049858;28;20845;-61
2022/03/03 06:04:37;;;;;;;5.13;3.87;;;;;;;18.57;50.63;100523.38;5048603;28;20473;-61
2022/03/03 06:07:05;;;;;;;4.83;3.90;;;;;;;18.55;50.38;100516.38;5032848;28;20426;-61
2022/03/03 06:09:32;;;;;;;6.57;4.23;;;;;;;18.57;50.45;100508.28;5034851;28;20751;-61
2022/03/03 06:12:06;;;;;;;6.23;4.77;;;;;;;18.57;50.46;100514.81;5031450;28;20815;-61
2022/03/03 06:14:45;;;;;;;6.20;3.93;;;;;;;18.56;50.22;100513.16;5051054;28;20738;-61
2022/03/03 06:17:10;;;;;;;7.20;4.60;;;;;;;18.56;50.38;100512.34;5051306;28;21094;-61
2022/03/03 06:19:41;;;;;;;6.07;4.40;;;;;;;18.56;50.45;100504.56;5032735;28;20457;-61
2022/03/03 06:22:10;;;;;;;5.83;3.90;;;;;;;18.59;50.15;100505.84;5050438;28;20189;-61
2022/03/03 06:24:36;;;;;;;5.17;3.90;;;;;;;18.55;50.66;100502.94;5050692;28;20445;-61
2022/03/03 06:27:02;;;;;;;7.90;4.50;;;;;;;18.55;50.49;100510.66;5050985;28;20459;-61
2022/03/03 06:29:27;;;;;;;5.90;4.03;;;;;;;18.55;50.05;100507.81;5050061;28;20656;-61
2022/03/03 06:31:53;;;;;;;6.40;4.63;;;;;;;18.61;50.54;100515.72;5050267;28;20171;-62
2022/03/03 06:34:20;;;;;;;5.90;3.27;;;;;;;18.55;50.66;100513.53;5047076;28;20196;-61
2022/03/03 06:36:46;;;;;;;6.40;4.40;;;;;;;18.52;50.27;100512.25;5030563;28;20278;-61
2022/03/03 06:39:11;;;;;;;5.53;4.10;;;;;;;18.56;50.41;100507.44;5030417;28;20451;-61
2022/03/03 06:41:37;;;;;;;6.00;3.97;;;;;;;18.59;50.17;100509.56;5046861;28;20184;-61
2022/03/03 06:44:02;;;;;;;5.50;3.50;;;;;;;18.57;50.30;100514.81;5048972;28;20662;-61
2022/03/03 06:46:28;;;;;;;6.47;4.50;;;;;;;18.57;50.22;100517.66;5049376;28;20195;-61
2022/03/03 06:48:54;;;;;;;5.13;3.50;;;;;;;18.61;50.23;100518.56;5048976;28;20179;-61
2022/03/03 06:51:20;;;;;;;5.50;3.60;;;;;;;18.59;50.05;100523.00;5049356;28;20176;-61
2022/03/03 06:53:46;;;;;;;6.43;4.33;;;;;;;18.57;50.16;100523.38;5049593;28;20661;-61
2022/03/03 06:56:14;;;;;;;5.13;3.73;;;;;;;18.59;50.22;100523.84;5032142;28;20422;-61
2022/03/03 06:58:40;;;;;;;5.20;3.87;;;;;;;18.55;50.32;100520.09;5047438;28;20175;-61
2022/03/03 07:01:09;;;;;;;5.83;3.83;;;;;;;18.55;50.09;100525.81;5029390;28;20796;-61
2022/03/03 07:03:35;;;;;;;5.33;4.00;;;;;;;18.56;50.45;100513.16;5029301;28;20196;-61
2022/03/03 07:06:04;;;;;;;5.70;4.10;;;;;;;18.56;50.17;100512.34;5038607;28;20462;-61
2022/03/03 07:08:31;;;;;;;5.77;3.80;;;;;;;18.61;50.19;100515.72;5049184;28;20453;-61
2022/03/03 07:10:57;;;;;;;5.73;3.60;;;;;;;18.60;50.14;100525.50;5049153;28;20432;-61
2022/03/03 07:13:22;;;;;;;5.20;3.80;;;;;;;18.62;49.96;100522.28;5037164;28;20423;-61
2022/03/03 07:15:52;;;;;;;5.60;4.10;;;;;;;18.55;50.38;100514.38;5029321;28;20173;-61
2022/03/03 07:18:19;;;;;;;6.40;4.33;;;;;;;18.60;50.28;100521.81;5035656;28;20184;-61
2022/03/03 07:20:51;;;;;;;4.90;3.57;;;;;;;18.60;50.14;100519.78;5045635;28;20468;-61
2022/03/03 07:23:16;;;;;;;6.03;3.67;;;;;;;18.55;50.28;100513.53;5049255;28;20437;-61
2022/03/03 07:25:46;;;;;;;5.00;3.70;;;;;;;18.59;50.20;100514.44;5046467;28;20781;-61
2022/03/03 07:28:12;;;;;;;5.23;3.73;;;;;;;18.59;50.18;100515.28;5049825;28;20187;-61
2022/03/03 07:30:41;;;;;;;6.70;4.40;;;;;;;18.59;50.09;100506.69;5049066;28;20415;-61
2022/03/03 07:33:11;;;;;;;5.50;4.10;;;;;;;18.62;49.95;100491.63;5049020;28;20186;-61
2022/03/03 07:35:37;;;;;;;4.40;3.30;;;;;;;18.60;50.41;100491.19;5049493;28;20449;-61
2022/03/03 07:38:14;;;;;;;6.83;5.10;;;;;;;18.49;47.13;100498.72;5033830;28;20458;-62
2022/03/03 07:40:41;;;;;;;21.20;15.07;;;;;;;17.84;42.62;100495.94;5046451;28;20252;-62
2022/03/03 07:43:07;;;;;;;30.80;19.17;;;;;;;17.44;42.42;100484.78;5044462;28;20691;-62
2022/03/03 07:45:33;;;;;;;31.63;20.77;;;;;;;18.12;42.00;100488.84;5039086;28;20525;-62
2022/03/03 07:47:59;;;;;;;34.77;19.73;;;;;;;18.50;39.98;100493.81;5047778;28;20226;-62
2022/03/03 07:50:24;;;;;;;27.93;17.17;;;;;;;18.72;39.82;100496.75;5047631;28;20253;-62
2022/03/03 07:52:50;;;;;;;23.03;16.97;;;;;;;18.86;40.87;100487.63;5047415;28;20175;-62
2022/03/03 07:55:16;;;;;;;24.03;16.97;;;;;;;19.09;40.94;100480.72;5048391;28;20651;-62
2022/03/03 07:57:54;;;;;;;26.50;17.77;;;;;;;19.09;40.95;100454.97;5048482;28;20177;-62
2022/03/03 08:00:19;;;;;;;20.50;14.90;;;;;;;19.09;40.63;100457.84;5047084;28;20564;-62
2022/03/03 08:02:45;;;;;;;21.10;14.60;;;;;;;19.04;41.59;100466.75;5029526;28;20446;-62
2022/03/03 08:05:11;;;;;;;23.20;15.10;;;;;;;19.07;41.32;100463.09;5027515;28;20220;-62
2022/03/03 08:07:42;;;;;;;21.73;15.77;;;;;;;19.07;40.19;100457.38;5028941;28;20546;-62
2022/03/03 08:10:08;;;;;;;23.00;15.60;;;;;;;18.86;39.39;100459.84;5007146;28;20479;-62
2022/03/03 08:12:33;;;;;;;23.37;17.50;;;;;;;18.62;36.73;100463.03;5025421;28;20446;-61
2022/03/03 08:14:59;;;;;;;27.23;16.67;;;;;;;18.60;37.96;100459.75;5027284;28;20202;-61
2022/03/03 08:17:24;;;;;;;23.07;15.90;;;;;;;18.55;38.91;100470.63;5026036;28;20673;-62
2022/03/03 08:19:50;;;;;;;24.03;15.20;;;;;;;18.69;39.04;100473.78;5026414;28;20215;-62
2022/03/03 08:22:15;;;;;;;21.97;15.47;;;;;;;18.93;39.80;100471.44;5027406;28;20512;-62
2022/03/03 08:24:43;;;;;;;20.33;15.53;;;;;;;19.07;40.23;100468.81;5025771;28;20187;-62
2022/03/03 08:27:10;;;;;;;23.43;15.30;;;;;;;18.98;40.14;100471.13;5029258;28;20180;-62
2022/03/03 08:29:35;;;;;;;17.20;13.67;;;;;;;18.98;40.87;100464.56;5028784;28;20415;-62
2022/03/03 08:32:01;;;;;;;27.73;14.37;;;;;;;19.05;42.52;100468.38;5029011;28;20509;-62
2022/03/03 08:34:42;;;;;;;22.03;14.10;;;;;;;19.17;43.50;100465.31;5026893;28;20188;-62
2022/03/03 08:37:11;;;;;;;21.27;13.07;;;;;;;19.06;42.93;100464.31;5026995;28;20172;-62
2022/03/03 08:39:38;;;;;;;18.63;13.00;;;;;;;19.02;44.45;100469.13;5027012;28;20489;-61
2022/03/03 08:42:06;;;;;;;18.00;13.30;;;;;;;19.12;43.63;100467.69;5026936;28;20435;-61
2022/03/03 08:44:35;;;;;;;17.90;12.13;;;;;;;18.94;44.82;100461.66;5026600;28;20437;-61
2022/03/03 08:47:02;;;;;;;16.60;12.30;;;;;;;18.83;44.93;100469.19;5027599;28;20949;-61
2022/03/03 08:49:30;;;;;;;15.83;11.13;;;;;;;18.75;44.68;100460.84;5026813;28;20449;-61
2022/03/03 08:51:56;;;;;;;16.23;12.20;;;;;;;18.70;43.82;100464.84;5027163;28;20425;-61
2022/03/03 08:54:21;;;;;;;18.13;12.53;;;;;;;18.65;43.92;100468.00;5027295;28;20533;-62
2022/03/03 08:56:47;;;;;;;16.10;11.30;;;;;;;18.59;44.20;100463.81;5028240;28;20435;-62
2022/03/03 08:59:12;;;;;;;19.70;10.70;;;;;;;18.57;44.95;100471.09;5021447;28;20299;-62
2022/03/03 09:01:38;;;;;;;18.67;11.70;;;;;;;18.57;46.09;100476.81;5015946;28;20177;-61
2022/03/03 09:04:03;;;;;;;22.60;11.13;;;;;;;18.55;46.48;100468.63;5028776;28;20616;-61
2022/03/03 09:06:31;;;;;;;25.20;11.57;;;;;;;18.59;46.48;100474.41;5044456;28;20331;-61
2022/03/03 09:08:56;;;;;;;21.73;10.90;;;;;;;18.57;46.52;100477.63;5034329;28;20183;-61
2022/03/03 09:11:22;;;;;;;18.63;11.20;;;;;;;18.59;46.42;100475.25;5028654;28;20419;-61
2022/03/03 09:13:47;;;;;;;20.03;10.80;;;;;;;18.62;46.53;100477.34;5043246;28;20183;-61
2022/03/03 09:16:16;;;;;;;38.97;12.37;;;;;;;18.65;46.57;100478.59;5046219;28;20702;-61
2022/03/03 09:18:41;;;;;;;19.80;9.77;;;;;;;18.63;46.79;100476.16;5047288;28;20186;-61
2022/03/03 09:21:07;;;;;;;20.80;10.70;;;;;;;18.67;46.74;100488.47;5047906;28;20616;-60
2022/03/03 09:23:35;;;;;;;19.37;10.17;;;;;;;18.65;47.02;100479.44;5050555;28;20167;-60
2022/03/03 09:26:00;;;;;;;22.30;11.67;;;;;;;18.65;46.90;100488.03;5050759;28;20243;-60
2022/03/03 09:28:26;;;;;;;20.67;10.40;;;;;;;18.65;47.03;100487.19;5049891;28;20794;-60
2022/03/03 09:30:51;;;;;;;15.60;10.50;;;;;;;18.68;47.13;100484.44;5052219;28;20230;-60
2022/03/03 09:33:17;;;;;;;15.30;9.80;;;;;;;18.66;47.45;100477.44;5050799;28;20174;-60
2022/03/03 09:35:42;;;;;;;21.33;10.60;;;;;;;18.68;47.43;100475.84;5051767;28;20194;-60
2022/03/03 09:38:08;;;;;;;20.30;9.57;;;;;;;18.67;47.40;100474.16;5051375;28;20198;-61
2022/03/03 09:40:33;;;;;;;16.47;9.80;;;;;;;18.70;47.28;100476.28;5051789;28;20207;-61
2022/03/03 09:43:06;;;;;;;16.43;8.87;;;;;;;18.66;47.57;100474.56;5048923;28;20183;-61
2022/03/03 09:45:32;;;;;;;17.40;9.00;;;;;;;18.71;47.71;100477.13;5052543;28;20180;-61
2022/03/03 09:47:58;;;;;;;21.10;9.80;;;;;;;18.67;47.87;100481.94;5050715;28;20429;-60
2022/03/03 09:50:25;;;;;;;21.23;9.80;;;;;;;18.67;47.74;100484.78;5052022;28;20528;-60
2022/03/03 09:52:50;;;;;;;14.53;9.03;;;;;;;18.67;47.95;100481.94;5033307;28;20915;-61
2022/03/03 09:55:16;;;;;;;24.37;9.30;;;;;;;18.69;47.72;100474.63;5049870;28;20466;-61
2022/03/03 09:57:41;;;;;;;19.17;9.27;;;;;;;18.66;48.17;100480.28;5051547;28;20194;-61
2022/03/03 10:00:09;;;;;;;15.43;8.90;;;;;;;18.68;48.17;100478.72;5050215;28;20219;-61
2022/03/03 10:03:14;;;;;;;15.67;8.37;;;;;;;18.68;48.00;100477.88;5050140;28;20272;-62
2022/03/03 10:05:45;;;;;;;13.80;9.30;;;;;;;18.69;48.36;100479.50;5009964;28;20475;-61
2022/03/03 10:08:12;;;;;;;16.80;8.67;;;;;;;18.67;48.28;100467.63;5009764;28;20439;-61
2022/03/03 10:10:39;;;;;;;13.20;8.23;;;;;;;18.68;47.94;100470.13;5020395;28;20434;-61
2022/03/03 10:13:05;;;;;;;14.23;8.40;;;;;;;18.68;48.53;100472.97;5039984;28;20429;-61
2022/03/03 10:15:31;;;;;;;16.53;8.80;;;;;;;18.68;48.32;100478.72;5051736;28;20773;-61
2022/03/03 10:18:01;;;;;;;13.17;8.30;;;;;;;18.68;48.19;100475.84;5051716;28;20598;-61
2022/03/03 10:20:27;;;;;;;11.97;8.00;;;;;;;18.66;48.24;100474.56;5051319;28;20835;-61
2022/03/03 10:22:58;;;;;;;15.37;8.67;;;;;;;18.66;48.54;100483.94;5051570;28;20524;-61
2022/03/03 10:25:37;;;;;;;11.23;8.80;;;;;;;18.68;48.87;100490.16;5050555;28;20592;-61
2022/03/03 10:28:14;;;;;;;13.13;8.20;;;;;;;18.68;48.45;100490.16;5046940;28;20418;-61
2022/03/03 10:30:50;;;;;;;15.43;8.73;;;;;;;18.70;48.39;100484.88;5050248;28;20397;-61
2022/03/03 10:33:18;;;;;;;15.07;8.27;;;;;;;18.71;48.46;100494.28;5051183;28;20471;-61
2022/03/03 10:36:15;;;;;;;13.43;8.57;;;;;;;18.69;48.64;100471.78;5050920;28;20473;-61
2022/03/03 10:38:54;;;;;;;15.30;8.20;;;;;;;18.70;48.52;100472.59;5049181;28;20423;-60
2022/03/03 10:41:37;;;;;;;13.03;7.53;;;;;;;18.69;48.97;100480.34;5051143;28;20917;-60
2022/03/03 10:44:11;;;;;;;14.90;8.20;;;;;;;18.71;48.82;100466.50;5051323;28;20811;-61
2022/03/03 10:47:01;;;;;;;13.17;7.93;;;;;;;18.71;48.51;100462.81;5050687;28;20420;-61
2022/03/03 10:49:27;;;;;;;11.27;8.00;;;;;;;18.69;48.77;100457.47;5037499;28;21138;-61
2022/03/03 10:51:52;;;;;;;12.20;7.67;;;;;;;18.72;48.92;100461.63;5050656;28;20421;-61
2022/03/03 10:54:18;;;;;;;11.20;7.43;;;;;;;18.70;48.71;100464.84;5049683;28;20224;-61
2022/03/03 10:56:48;;;;;;;13.80;8.23;;;;;;;18.74;48.43;100462.88;5049766;28;20535;-61
2022/03/03 10:59:23;;;;;;;11.33;7.93;;;;;;;18.72;48.58;100456.69;5045122;28;20192;-61
2022/03/03 11:01:49;;;;;;;12.93;7.77;;;;;;;18.76;48.62;100459.66;5050781;28;20422;-61
2022/03/03 11:04:19;;;;;;;10.77;7.47;;;;;;;18.75;48.67;100458.81;5050618;28;20568;-61
2022/03/03 11:06:45;;;;;;;9.83;7.47;;;;;;;18.71;48.64;100457.91;5029653;28;20478;-61
2022/03/03 11:09:10;;;;;;;10.93;7.47;;;;;;;18.72;48.73;100453.03;5030012;28;20417;-61
2022/03/03 11:11:36;;;;;;;14.83;8.10;;;;;;;18.74;48.97;100451.44;5030820;28;20172;-61
2022/03/03 11:14:01;;;;;;;11.90;7.70;;;;;;;18.73;48.85;100449.81;5047720;28;20240;-61
2022/03/03 11:16:27;;;;;;;9.80;7.47;;;;;;;18.73;48.89;100446.94;5050737;28;20179;-61
2022/03/03 11:18:52;;;;;;;15.00;8.07;;;;;;;18.76;48.94;100451.88;5049317;28;20194;-61
2022/03/03 11:21:18;;;;;;;12.20;7.80;;;;;;;18.78;48.75;100449.50;5049276;28;20263;-61